createdAt,value
2023-05-10T00:01:36.572Z,7.90
2023-05-10T00:04:04.302Z,7.13
2023-05-10T00:06:34.222Z,9.43
2023-05-10T00:09:02.219Z,7.47
2023-05-10T00:11:29.662Z,7.85
2023-05-10T00:13:57.087Z,6.93
2023-05-10T00:16:24.574Z,6.65
2023-05-10T00:18:53.106Z,5.00
2023-05-10T00:21:20.646Z,5.07
2023-05-10T00:23:48.180Z,3.10
2023-05-10T00:26:17.906Z,2.50
2023-05-10T00:28:50.698Z,2.50
2023-05-10T00:31:19.276Z,2.03
2023-05-10T00:33:46.884Z,1.98
2023-05-10T00:36:20.301Z,2.30
2023-05-10T00:38:47.803Z,2.85
2023-05-10T00:41:15.326Z,3.42
2023-05-10T00:43:48.526Z,4.82
2023-05-10T00:46:17.384Z,5.20
2023-05-10T00:48:48.700Z,6.28
2023-05-10T00:51:25.145Z,6.60
2023-05-10T00:53:53.077Z,7.53
2023-05-10T00:56:24.253Z,9.18
2023-05-10T00:58:54.296Z,10.00
2023-05-10T01:01:21.862Z,10.70
2023-05-10T01:03:51.309Z,14.52
2023-05-10T01:06:18.694Z,15.77
2023-05-10T01:08:46.560Z,16.63
2023-05-10T01:11:14.005Z,17.90
2023-05-10T01:13:43.215Z,19.63
2023-05-10T01:16:10.942Z,20.08
2023-05-10T01:18:39.972Z,20.02
2023-05-10T01:21:07.454Z,18.98
2023-05-10T01:23:46.021Z,19.75
2023-05-10T01:26:14.058Z,14.73
2023-05-10T01:29:00.728Z,15.15
2023-05-10T01:31:46.926Z,14.07
2023-05-10T01:34:18.067Z,12.05
2023-05-10T01:36:48.367Z,8.20
2023-05-10T01:39:19.978Z,8.07
2023-05-10T01:41:59.841Z,8.73
2023-05-10T01:44:37.545Z,9.93
2023-05-10T01:47:07.691Z,10.77
2023-05-10T01:49:47.650Z,9.63
2023-05-10T01:52:17.514Z,9.23
2023-05-10T01:54:51.274Z,8.07
2023-05-10T01:57:19.244Z,5.82
2023-05-10T01:59:51.856Z,3.83
2023-05-10T02:02:22.155Z,3.05
2023-05-10T02:04:50.660Z,2.90
2023-05-10T02:07:21.307Z,3.03
2023-05-10T02:09:50.846Z,2.05
2023-05-10T02:12:18.898Z,2.15
2023-05-10T02:14:46.904Z,1.90
2023-05-10T02:17:17.679Z,1.83
2023-05-10T02:19:49.024Z,1.90
2023-05-10T02:22:21.421Z,2.45
2023-05-10T02:24:54.638Z,2.42
2023-05-10T02:27:22.543Z,2.08
2023-05-10T02:29:52.076Z,1.75
2023-05-10T02:32:20.565Z,2.22
2023-05-10T02:34:52.964Z,1.85
2023-05-10T02:37:21.323Z,2.10
2023-05-10T02:39:53.308Z,2.47
2023-05-10T02:42:21.946Z,2.97
2023-05-10T02:44:52.733Z,3.80
2023-05-10T02:47:28.211Z,3.38
2023-05-10T02:49:55.856Z,4.18
2023-05-10T02:52:29.013Z,4.97
2023-05-10T02:54:57.598Z,5.18
2023-05-10T02:57:28.297Z,7.55
2023-05-10T02:59:59.891Z,9.70
2023-05-10T03:02:27.830Z,12.43
2023-05-10T03:04:55.370Z,12.35
2023-05-10T03:07:26.978Z,17.73
2023-05-10T03:09:54.479Z,15.85
2023-05-10T03:12:28.824Z,15.02
2023-05-10T03:14:59.258Z,18.02
2023-05-10T03:17:35.290Z,15.63
2023-05-10T03:20:08.792Z,17.88
2023-05-10T03:22:41.888Z,18.77
2023-05-10T03:25:10.890Z,18.80
2023-05-10T03:27:40.973Z,18.83
2023-05-10T03:30:10.097Z,19.65
2023-05-10T03:32:38.122Z,14.82
2023-05-10T03:35:09.733Z,14.52
2023-05-10T03:37:38.132Z,14.85
2023-05-10T03:40:06.822Z,13.88
2023-05-10T03:42:36.934Z,12.32
2023-05-10T03:45:07.015Z,12.98
2023-05-10T03:47:34.588Z,11.70
2023-05-10T03:50:02.888Z,14.07
2023-05-10T03:52:30.618Z,17.33
2023-05-10T03:55:04.940Z,19.35
2023-05-10T03:57:32.641Z,19.88
2023-05-10T04:00:03.922Z,18.88
2023-05-10T04:02:42.053Z,17.90
2023-05-10T04:05:13.735Z,15.00
2023-05-10T04:07:42.399Z,14.65
2023-05-10T04:10:11.452Z,13.23
2023-05-10T04:12:38.957Z,11.35
2023-05-10T04:15:07.580Z,10.60
2023-05-10T04:17:35.208Z,11.43
2023-05-10T04:20:04.217Z,8.20
2023-05-10T04:22:33.859Z,5.25
2023-05-10T04:25:04.071Z,3.35
2023-05-10T04:27:32.107Z,3.58
2023-05-10T04:29:59.596Z,4.18
2023-05-10T04:32:27.114Z,4.47
2023-05-10T04:34:54.676Z,7.97
2023-05-10T04:37:24.016Z,10.30
2023-05-10T04:40:01.800Z,9.82
2023-05-10T04:42:29.330Z,12.80
2023-05-10T04:44:56.772Z,11.93
2023-05-10T04:47:27.686Z,14.93
2023-05-10T04:49:55.215Z,14.50
2023-05-10T04:52:24.905Z,13.32
2023-05-10T04:54:54.259Z,13.38
2023-05-10T04:57:28.934Z,14.20
2023-05-10T04:59:56.525Z,13.85
2023-05-10T05:02:24.735Z,12.30
2023-05-10T05:04:59.451Z,12.10
2023-05-10T05:07:26.929Z,11.88
2023-05-10T05:09:54.336Z,11.80
2023-05-10T05:12:21.818Z,9.57
2023-05-10T05:14:52.749Z,11.13
2023-05-10T05:17:20.246Z,10.25
2023-05-10T05:19:51.683Z,13.05
2023-05-10T05:22:20.501Z,13.95
2023-05-10T05:24:48.055Z,12.73
2023-05-10T05:27:25.155Z,13.27
2023-05-10T05:29:52.680Z,11.18
2023-05-10T05:32:22.873Z,10.23
2023-05-10T05:34:53.192Z,11.07
2023-05-10T05:37:23.776Z,10.07
2023-05-10T05:39:51.206Z,10.00
2023-05-10T05:42:19.951Z,9.27
2023-05-10T05:44:47.699Z,9.02
2023-05-10T05:47:17.231Z,8.20
2023-05-10T05:49:46.942Z,9.90
2023-05-10T05:52:14.528Z,8.48
2023-05-10T05:54:42.008Z,7.85
2023-05-10T05:57:10.046Z,6.63
2023-05-10T05:59:37.611Z,5.75
2023-05-10T06:02:05.109Z,5.32
2023-05-10T06:04:33.676Z,4.50
2023-05-10T06:07:01.185Z,4.22
2023-05-10T06:09:31.054Z,4.28
2023-05-10T06:11:58.556Z,5.15
2023-05-10T06:14:25.989Z,5.78
2023-05-10T06:16:53.424Z,5.15
2023-05-10T06:19:20.984Z,5.68
2023-05-10T06:21:48.506Z,6.32
2023-05-10T06:24:16.088Z,6.57
2023-05-10T06:26:45.692Z,7.05
2023-05-10T06:29:13.151Z,5.97
2023-05-10T06:31:40.730Z,5.65
2023-05-10T06:34:09.101Z,5.43
2023-05-10T06:36:36.559Z,6.63
2023-05-10T06:39:04.369Z,6.35
2023-05-10T06:41:31.826Z,7.85
2023-05-10T06:43:59.265Z,7.93
2023-05-10T06:46:27.174Z,7.43
2023-05-10T06:48:56.902Z,7.25
2023-05-10T06:51:27.353Z,5.90
2023-05-10T06:53:55.208Z,5.85
2023-05-10T06:56:33.765Z,5.30
2023-05-10T06:59:01.260Z,4.13
2023-05-10T07:01:31.034Z,4.70
2023-05-10T07:03:58.962Z,4.70
2023-05-10T07:06:33.338Z,4.70
2023-05-10T07:09:14.443Z,5.15
2023-05-10T07:11:42.060Z,5.38
2023-05-10T07:14:13.716Z,5.00
2023-05-10T07:16:43.773Z,5.25
2023-05-10T07:19:11.574Z,5.45
2023-05-10T07:21:49.046Z,5.75
2023-05-10T07:24:16.552Z,5.65
2023-05-10T07:26:44.111Z,6.80
2023-05-10T07:29:11.858Z,7.80
2023-05-10T07:31:42.944Z,7.95
2023-05-10T07:34:11.055Z,7.22
2023-05-10T07:36:39.692Z,7.32
2023-05-10T07:39:08.118Z,7.50
2023-05-10T07:41:37.789Z,7.72
2023-05-10T07:44:05.528Z,3.85
2023-05-10T07:46:33.249Z,3.05
2023-05-10T07:49:04.241Z,3.13
2023-05-10T07:51:31.885Z,3.38
2023-05-10T07:53:59.365Z,2.65
2023-05-10T07:56:30.519Z,2.50
2023-05-10T07:59:06.001Z,3.20
2023-05-10T08:01:35.558Z,3.75
2023-05-10T08:04:09.744Z,3.97
2023-05-10T08:06:37.288Z,4.68
2023-05-10T08:09:05.732Z,5.43
2023-05-10T08:11:40.689Z,5.80
2023-05-10T08:14:08.234Z,5.68
2023-05-10T08:16:36.136Z,5.63
2023-05-10T08:19:05.332Z,6.07
2023-05-10T08:21:38.229Z,5.43
2023-05-10T08:24:08.136Z,5.22
2023-05-10T08:26:37.787Z,5.18
2023-05-10T08:29:05.853Z,5.05
2023-05-10T08:31:33.685Z,4.47
2023-05-10T08:34:01.523Z,5.55
2023-05-10T08:36:29.340Z,5.47
2023-05-10T08:38:59.068Z,5.63
2023-05-10T08:41:27.255Z,6.15
2023-05-10T08:43:56.475Z,7.20
2023-05-10T08:46:33.427Z,6.07
2023-05-10T08:49:05.244Z,6.65
2023-05-10T08:51:36.944Z,6.55
2023-05-10T08:54:07.764Z,6.07
2023-05-10T08:56:37.569Z,6.75
2023-05-10T08:59:06.677Z,6.07
2023-05-10T09:01:34.426Z,6.13
2023-05-10T09:04:02.066Z,6.38
2023-05-10T09:06:29.916Z,7.13
2023-05-10T09:08:57.719Z,7.13
2023-05-10T09:11:25.787Z,8.57
2023-05-10T09:13:54.161Z,9.15
2023-05-10T09:16:22.578Z,12.35
2023-05-10T09:18:52.857Z,12.65
2023-05-10T09:21:21.657Z,12.13
2023-05-10T09:23:52.046Z,12.50
2023-05-10T09:26:23.606Z,11.65
2023-05-10T09:28:58.271Z,12.27
2023-05-10T09:31:26.906Z,11.43
2023-05-10T09:33:54.698Z,11.57
2023-05-10T09:36:22.165Z,10.70
2023-05-10T09:38:49.689Z,10.35
2023-05-10T09:41:18.529Z,11.60
2023-05-10T09:43:46.035Z,11.85
2023-05-10T09:46:13.801Z,11.57
2023-05-10T09:48:45.878Z,9.77
2023-05-10T09:51:21.468Z,11.13
2023-05-10T09:53:52.686Z,9.88
2023-05-10T09:56:36.028Z,10.20
2023-05-10T09:59:07.094Z,9.40
2023-05-10T10:01:36.215Z,10.52
2023-05-10T10:04:07.609Z,8.68
2023-05-10T10:06:39.040Z,8.48
2023-05-10T10:09:10.001Z,7.55
2023-05-10T10:11:38.198Z,8.90
2023-05-10T10:14:06.197Z,9.13
2023-05-10T10:16:34.405Z,9.88
2023-05-10T10:19:02.732Z,10.52
2023-05-10T10:21:30.499Z,11.30
2023-05-10T10:23:57.971Z,11.57
2023-05-10T10:26:26.136Z,13.52
2023-05-10T10:28:56.674Z,15.48
2023-05-10T10:31:33.550Z,17.15
2023-05-10T10:34:00.932Z,13.45
2023-05-10T10:36:28.423Z,14.43
2023-05-10T10:39:00.257Z,12.57
2023-05-10T10:41:30.944Z,12.07
2023-05-10T10:44:17.246Z,11.32
2023-05-10T10:47:00.828Z,11.32
2023-05-10T10:49:28.797Z,11.57
2023-05-10T10:52:34.808Z,10.27
2023-05-10T10:55:12.105Z,11.13
2023-05-10T10:57:42.544Z,11.10
2023-05-10T11:00:22.776Z,11.60
2023-05-10T11:02:52.594Z,12.20
2023-05-10T11:05:39.926Z,11.68
2023-05-10T11:08:17.222Z,12.02
2023-05-10T11:10:55.503Z,12.52
2023-05-10T11:13:30.574Z,14.45
2023-05-10T11:15:58.520Z,14.88
2023-05-10T11:18:29.850Z,17.38
2023-05-10T11:21:01.383Z,15.13
2023-05-10T11:23:33.114Z,13.80
2023-05-10T11:26:02.299Z,15.13
2023-05-10T11:28:29.776Z,14.65
2023-05-10T11:30:57.439Z,15.38
2023-05-10T11:33:24.957Z,17.45
2023-05-10T11:35:52.318Z,15.57
2023-05-10T11:38:19.813Z,13.93
2023-05-10T11:40:47.315Z,13.77
2023-05-10T11:43:14.887Z,12.00
2023-05-10T11:45:43.498Z,11.98
2023-05-10T11:48:11.115Z,11.40
2023-05-10T11:50:38.623Z,10.32
2023-05-10T11:53:06.365Z,11.40
2023-05-10T11:55:35.260Z,12.45
2023-05-10T11:58:03.620Z,13.05
2023-05-10T12:00:31.496Z,14.43
2023-05-10T12:02:59.359Z,14.52
2023-05-10T12:05:27.189Z,12.43
2023-05-10T12:07:54.711Z,13.48
2023-05-10T12:10:27.457Z,13.38
2023-05-10T12:15:23.325Z,11.63
2023-05-10T12:17:51.713Z,10.93
2023-05-10T12:20:23.064Z,9.65
2023-05-10T12:22:54.996Z,10.80
2023-05-10T12:25:23.783Z,10.52
2023-05-10T12:27:56.386Z,11.73
2023-05-10T12:30:24.741Z,13.80
2023-05-10T12:32:52.537Z,15.88
2023-05-10T12:35:24.924Z,14.20
2023-05-10T12:37:52.906Z,13.60
2023-05-10T12:40:20.350Z,14.23
2023-05-10T12:42:47.859Z,13.52
2023-05-10T12:45:15.294Z,15.55
2023-05-10T12:47:44.019Z,16.42
2023-05-10T12:50:12.128Z,14.43
2023-05-10T12:52:39.821Z,14.18
2023-05-10T12:55:07.674Z,14.68
2023-05-10T12:57:35.128Z,13.55
2023-05-10T13:00:02.612Z,12.25
2023-05-10T13:02:30.326Z,12.45
2023-05-10T13:04:57.802Z,14.90
2023-05-10T13:07:25.507Z,13.00
2023-05-10T13:09:53.392Z,11.27
2023-05-10T13:12:25.132Z,9.90
2023-05-10T13:14:52.636Z,10.20
2023-05-10T13:17:20.092Z,10.45
2023-05-10T13:19:47.605Z,10.85
2023-05-10T13:22:18.706Z,8.68
2023-05-10T13:24:50.590Z,8.93
2023-05-10T13:27:18.778Z,7.72
2023-05-10T13:29:49.180Z,7.30
2023-05-10T13:32:21.729Z,7.45
2023-05-10T13:35:05.573Z,8.40
2023-05-10T13:37:37.680Z,7.50
2023-05-10T13:40:05.856Z,7.43
2023-05-10T13:42:34.551Z,7.53
2023-05-10T13:45:05.732Z,7.40
2023-05-10T13:47:33.226Z,8.55
2023-05-10T13:50:01.775Z,7.80
2023-05-10T13:52:29.200Z,8.02
2023-05-10T13:54:57.023Z,8.25
2023-05-10T13:57:25.274Z,8.45
2023-05-10T13:59:55.928Z,7.63
2023-05-10T14:02:25.772Z,7.53
2023-05-10T14:04:53.668Z,8.40
2023-05-10T14:07:21.325Z,7.78
2023-05-10T14:09:49.073Z,8.25
2023-05-10T14:12:17.426Z,8.73
2023-05-10T14:14:44.849Z,6.32
2023-05-10T14:17:12.652Z,6.07
2023-05-10T14:19:40.617Z,6.13
2023-05-10T14:22:08.058Z,6.15
2023-05-10T14:24:35.537Z,5.55
2023-05-10T14:27:02.947Z,5.95
2023-05-10T14:29:33.590Z,5.68
2023-05-10T14:32:01.320Z,5.70
2023-05-10T14:34:28.747Z,5.80
2023-05-10T14:36:56.252Z,6.43
2023-05-10T14:39:23.891Z,6.03
2023-05-10T14:41:53.188Z,6.57
2023-05-10T14:44:22.066Z,7.43
2023-05-10T14:46:50.787Z,6.05
2023-05-10T14:49:18.298Z,6.88
2023-05-10T14:51:46.643Z,7.40
2023-05-10T14:54:15.284Z,7.50
2023-05-10T14:56:42.882Z,8.00
2023-05-10T14:59:10.325Z,8.18
2023-05-10T15:01:38.955Z,8.20
2023-05-10T15:04:06.784Z,8.05
2023-05-10T15:06:35.400Z,6.70
2023-05-10T15:09:07.187Z,7.35
2023-05-10T15:11:34.566Z,7.73
2023-05-10T15:14:02.990Z,7.57
2023-05-10T15:16:35.031Z,8.20
2023-05-10T15:19:12.600Z,9.15
2023-05-10T15:21:40.148Z,8.15
2023-05-10T15:24:08.176Z,7.90
2023-05-10T15:26:38.918Z,9.05
2023-05-10T15:29:06.383Z,11.38
2023-05-10T15:31:40.157Z,10.30
2023-05-10T15:34:11.338Z,9.30
2023-05-10T15:36:41.756Z,9.27
2023-05-10T15:39:10.240Z,9.68
2023-05-10T15:41:37.770Z,7.95
2023-05-10T15:44:05.362Z,10.00
2023-05-10T15:46:32.995Z,11.43
2023-05-10T15:49:00.530Z,10.85
2023-05-10T15:51:27.994Z,7.18
2023-05-10T15:54:06.464Z,7.40
2023-05-10T15:56:35.394Z,6.25
2023-05-10T15:59:03.926Z,6.93
2023-05-10T16:01:32.648Z,6.05
2023-05-10T16:04:02.285Z,5.70
2023-05-10T16:06:29.738Z,5.63
2023-05-10T16:08:57.610Z,8.25
2023-05-10T16:11:25.097Z,7.95
2023-05-10T16:13:52.883Z,7.95
2023-05-10T16:16:20.441Z,7.68
2023-05-10T16:18:48.302Z,7.75
2023-05-10T16:21:15.861Z,8.77
2023-05-10T16:23:45.252Z,8.85
2023-05-10T16:26:12.966Z,8.65
2023-05-10T16:28:40.999Z,8.88
2023-05-10T16:31:08.626Z,9.63
2023-05-10T16:33:37.028Z,10.43
2023-05-10T16:36:06.170Z,11.82
2023-05-10T16:38:33.626Z,11.50
2023-05-10T16:41:03.636Z,10.38
2023-05-10T16:43:32.443Z,10.60
2023-05-10T16:45:59.931Z,10.27
2023-05-10T16:48:27.378Z,12.38
2023-05-10T16:50:54.827Z,11.93
2023-05-10T16:53:22.294Z,11.90
2023-05-10T16:55:49.773Z,10.80
2023-05-10T16:58:17.188Z,10.98
2023-05-10T17:00:44.609Z,13.00
2023-05-10T17:03:12.484Z,11.68
2023-05-10T17:05:39.967Z,11.73
2023-05-10T17:08:07.691Z,10.25
2023-05-10T17:10:35.330Z,11.32
2023-05-10T17:13:04.239Z,12.85
2023-05-10T17:15:31.847Z,12.10
2023-05-10T17:17:59.406Z,12.02
2023-05-10T17:20:27.537Z,10.45
2023-05-10T17:22:55.082Z,10.55
2023-05-10T17:25:22.604Z,11.90
2023-05-10T17:27:50.006Z,11.55
2023-05-10T17:30:22.527Z,12.90
2023-05-10T17:32:50.040Z,11.05
2023-05-10T17:35:17.871Z,10.63
2023-05-10T17:37:45.575Z,11.27
2023-05-10T17:40:13.235Z,10.30
2023-05-10T17:42:40.992Z,10.60
2023-05-10T17:45:08.734Z,11.10
2023-05-10T17:47:36.387Z,11.07
2023-05-10T17:50:04.274Z,12.85
2023-05-10T17:52:33.563Z,10.63
2023-05-10T17:55:01.611Z,8.38
2023-05-10T17:57:29.098Z,8.98
2023-05-10T17:59:56.652Z,10.77
2023-05-10T18:02:24.284Z,10.23
2023-05-10T18:04:51.924Z,8.70
2023-05-10T18:07:20.436Z,8.25
2023-05-10T18:09:47.870Z,8.95
2023-05-10T18:12:15.301Z,8.05
2023-05-10T18:14:42.783Z,7.57
2023-05-10T18:17:10.460Z,7.25
2023-05-10T18:19:38.073Z,7.45
2023-05-10T18:22:06.083Z,7.07
2023-05-10T18:24:39.511Z,6.57
2023-05-10T18:29:34.729Z,6.22
2023-05-10T18:32:02.255Z,6.50
2023-05-10T18:34:29.984Z,5.70
2023-05-10T18:36:57.839Z,6.30
2023-05-10T18:39:25.303Z,5.88
2023-05-10T18:41:52.906Z,5.55
2023-05-10T18:44:21.970Z,5.35
2023-05-10T18:49:19.667Z,5.68
2023-05-10T18:51:47.401Z,5.70
2023-05-10T18:54:15.428Z,5.72
2023-05-10T18:56:45.229Z,4.90
2023-05-10T18:59:13.467Z,5.07
2023-05-10T19:01:43.989Z,4.95
2023-05-10T19:04:13.352Z,4.65
2023-05-10T19:06:42.029Z,4.80
2023-05-10T19:09:09.869Z,5.10
2023-05-10T19:11:43.342Z,4.07
2023-05-10T19:14:10.876Z,4.85
2023-05-10T19:16:40.100Z,4.75
2023-05-10T19:19:08.937Z,4.50
2023-05-10T19:21:36.603Z,3.88
2023-05-10T19:24:04.185Z,4.00
2023-05-10T19:26:31.810Z,3.80
2023-05-10T19:28:59.357Z,4.07
2023-05-10T19:31:26.868Z,3.60
2023-05-10T19:33:54.431Z,3.72
2023-05-10T19:36:21.990Z,3.72
2023-05-10T19:38:49.517Z,4.10
2023-05-10T19:41:17.214Z,3.95
2023-05-10T19:43:44.784Z,4.43
2023-05-10T19:46:12.890Z,4.10
2023-05-10T19:48:40.509Z,4.30
2023-05-10T19:51:10.270Z,4.18
2023-05-10T19:53:38.002Z,3.95
2023-05-10T19:56:06.825Z,4.25
2023-05-10T19:58:34.628Z,4.75
2023-05-10T20:01:02.338Z,4.40
2023-05-10T20:03:30.071Z,4.82
2023-05-10T20:05:57.667Z,4.55
2023-05-10T20:08:25.481Z,4.90
2023-05-10T20:10:53.185Z,4.75
2023-05-10T20:13:20.673Z,4.63
2023-05-10T20:15:48.157Z,5.82
2023-05-10T20:18:15.581Z,6.22
2023-05-10T20:20:43.288Z,5.55
2023-05-10T20:23:10.790Z,6.35
2023-05-10T20:25:38.210Z,6.15
2023-05-10T20:28:05.876Z,6.57
2023-05-10T20:30:33.341Z,5.35
2023-05-10T20:33:00.812Z,6.55
2023-05-10T20:35:28.241Z,5.70
2023-05-10T20:37:56.319Z,6.28
2023-05-10T20:40:24.166Z,7.25
2023-05-10T20:42:54.094Z,7.57
2023-05-10T20:45:21.588Z,6.80
2023-05-10T20:47:49.193Z,6.78
2023-05-10T20:50:17.133Z,6.07
2023-05-10T20:52:44.799Z,6.65
2023-05-10T20:55:12.813Z,7.40
2023-05-10T20:57:40.344Z,7.68
2023-05-10T21:00:09.475Z,7.78
2023-05-10T21:02:36.997Z,7.65
2023-05-10T21:05:04.628Z,7.88
2023-05-10T21:07:33.040Z,6.57
2023-05-10T21:10:00.651Z,7.00
2023-05-10T21:12:33.506Z,6.68
2023-05-10T21:15:01.365Z,7.40
2023-05-10T21:17:28.951Z,8.40
2023-05-10T21:19:56.448Z,8.27
2023-05-10T21:22:28.792Z,7.65
2023-05-10T21:24:56.177Z,8.07
2023-05-10T21:27:23.657Z,6.60
2023-05-10T21:29:53.062Z,6.30
2023-05-10T21:32:30.298Z,5.25
2023-05-10T21:34:58.025Z,5.57
2023-05-10T21:37:27.486Z,5.30
2023-05-10T21:39:55.984Z,6.07
2023-05-10T21:42:23.454Z,5.65
2023-05-10T21:44:51.070Z,5.95
2023-05-10T21:47:21.959Z,5.90
2023-05-10T21:49:52.467Z,4.70
2023-05-10T21:52:20.090Z,5.35
2023-05-10T21:54:48.622Z,4.30
2023-05-10T21:57:21.700Z,4.75
2023-05-10T21:59:49.253Z,4.38
2023-05-10T22:02:16.861Z,3.83
2023-05-10T22:04:46.999Z,3.45
2023-05-10T22:07:16.905Z,3.35
2023-05-10T22:09:45.116Z,3.50
2023-05-10T22:12:24.342Z,3.30
2023-05-10T22:14:59.615Z,3.90
2023-05-10T22:17:41.247Z,4.70
2023-05-10T22:20:11.705Z,4.53
2023-05-10T22:22:39.227Z,3.85
2023-05-10T22:25:12.637Z,3.55
2023-05-10T22:27:42.260Z,3.80
2023-05-10T22:30:10.036Z,3.78
2023-05-10T22:32:37.547Z,3.95
2023-05-10T22:35:13.721Z,3.60
2023-05-10T22:37:41.755Z,4.13
2023-05-10T22:40:13.284Z,5.78
2023-05-10T22:42:43.028Z,3.30
2023-05-10T22:45:10.812Z,4.35
2023-05-10T22:47:38.306Z,3.67
2023-05-10T22:50:06.226Z,3.90
2023-05-10T22:52:33.662Z,2.90
2023-05-10T22:55:01.166Z,3.35
2023-05-10T22:57:28.618Z,3.35
2023-05-10T22:59:56.043Z,2.88
2023-05-10T23:02:29.720Z,3.13
2023-05-10T23:04:57.244Z,3.15
2023-05-10T23:07:24.812Z,3.00
2023-05-10T23:09:55.781Z,3.63
2023-05-10T23:12:23.321Z,3.08
2023-05-10T23:14:50.767Z,3.50
2023-05-10T23:17:20.680Z,3.28
2023-05-10T23:19:50.133Z,3.42
2023-05-10T23:22:17.721Z,3.75
2023-05-10T23:24:46.170Z,2.95
2023-05-10T23:27:14.681Z,2.60
2023-05-10T23:29:43.698Z,3.85
2023-05-10T23:32:13.084Z,3.08
2023-05-10T23:34:40.918Z,2.80
2023-05-10T23:37:08.412Z,3.33
2023-05-10T23:39:44.484Z,3.05
2023-05-10T23:42:11.972Z,3.05
2023-05-10T23:44:39.573Z,3.22
2023-05-10T23:47:07.377Z,3.55
2023-05-10T23:49:43.020Z,3.22
2023-05-10T23:52:10.874Z,3.47
2023-05-10T23:54:40.495Z,3.13
2023-05-10T23:57:07.934Z,3.17
2023-05-10T23:59:35.411Z,3.92
